createdAt,value
2019-03-09T00:02:26.272Z,3.60
2019-03-09T00:04:56.237Z,4.10
2019-03-09T00:07:26.372Z,4.03
2019-03-09T00:09:56.317Z,3.40
2019-03-09T00:12:26.285Z,3.53
2019-03-09T00:14:56.210Z,3.97
2019-03-09T00:17:26.216Z,3.60
2019-03-09T00:19:57.721Z,3.47
2019-03-09T00:22:27.640Z,3.30
2019-03-09T00:24:59.210Z,3.47
2019-03-09T00:27:31.849Z,3.47
2019-03-09T00:30:03.417Z,3.50
2019-03-09T00:32:33.495Z,3.50
2019-03-09T00:35:03.658Z,3.87
2019-03-09T00:37:33.568Z,3.77
2019-03-09T00:40:04.876Z,3.40
2019-03-09T00:42:34.788Z,3.23
2019-03-09T00:45:05.772Z,3.40
2019-03-09T00:47:35.686Z,3.93
2019-03-09T00:50:08.650Z,3.57
2019-03-09T00:52:38.504Z,3.60
2019-03-09T00:55:11.276Z,3.17
2019-03-09T00:57:41.367Z,3.00
2019-03-09T01:00:17.342Z,3.03
2019-03-09T01:02:47.286Z,3.40
2019-03-09T01:05:17.136Z,3.23
2019-03-09T01:07:47.149Z,3.60
2019-03-09T01:10:18.184Z,3.20
2019-03-09T01:12:48.192Z,3.30
2019-03-09T01:15:18.281Z,3.30
2019-03-09T01:17:48.202Z,3.23
2019-03-09T01:20:18.253Z,3.13
2019-03-09T01:22:48.096Z,3.00
2019-03-09T01:25:18.052Z,2.80
2019-03-09T01:27:48.058Z,3.27
2019-03-09T01:30:18.256Z,3.10
2019-03-09T01:32:48.218Z,3.10
2019-03-09T01:35:18.135Z,3.47
2019-03-09T01:37:48.156Z,3.17
2019-03-09T01:40:18.129Z,3.60
2019-03-09T01:42:48.006Z,3.33
2019-03-09T01:45:17.989Z,3.70
2019-03-09T01:47:47.936Z,3.23
2019-03-09T01:50:17.841Z,3.20
2019-03-09T01:52:47.770Z,3.13
2019-03-09T01:55:17.688Z,3.97
2019-03-09T01:57:47.557Z,3.43
2019-03-09T02:00:21.176Z,3.20
2019-03-09T02:02:51.024Z,3.23
2019-03-09T02:05:20.964Z,3.10
2019-03-09T02:07:50.878Z,2.87
2019-03-09T02:10:20.815Z,3.30
2019-03-09T02:12:50.664Z,3.07
2019-03-09T02:15:20.665Z,3.57
2019-03-09T02:17:50.563Z,3.27
2019-03-09T02:20:20.426Z,3.63
2019-03-09T02:22:50.285Z,2.80
2019-03-09T02:25:20.219Z,3.07
2019-03-09T02:27:50.128Z,3.00
2019-03-09T02:30:20.326Z,3.17
2019-03-09T02:32:50.338Z,3.37
2019-03-09T02:35:20.286Z,3.00
2019-03-09T02:37:50.201Z,3.40
2019-03-09T02:40:27.840Z,3.00
2019-03-09T02:42:57.694Z,3.03
2019-03-09T02:45:29.511Z,2.93
2019-03-09T02:47:59.420Z,2.90
2019-03-09T02:50:29.360Z,2.83
2019-03-09T02:52:59.280Z,2.40
2019-03-09T02:55:29.216Z,2.70
2019-03-09T02:57:59.146Z,2.33
2019-03-09T03:00:30.718Z,2.43
2019-03-09T03:03:05.451Z,2.50
2019-03-09T03:05:35.398Z,2.80
2019-03-09T03:08:05.320Z,3.00
2019-03-09T03:10:35.260Z,2.47
2019-03-09T03:13:05.202Z,2.50
2019-03-09T03:15:38.321Z,2.80
2019-03-09T03:18:08.267Z,2.97
2019-03-09T03:20:38.197Z,2.60
2019-03-09T03:23:08.152Z,2.57
2019-03-09T03:25:38.442Z,2.60
2019-03-09T03:28:08.411Z,2.53
2019-03-09T03:30:38.317Z,2.63
2019-03-09T03:33:08.256Z,2.80
2019-03-09T03:35:38.101Z,3.10
2019-03-09T03:38:08.039Z,2.93
2019-03-09T03:40:38.065Z,3.03
2019-03-09T03:43:07.998Z,3.20
2019-03-09T03:45:37.953Z,3.40
2019-03-09T03:48:07.856Z,3.40
2019-03-09T03:50:37.708Z,2.80
2019-03-09T03:53:07.626Z,3.10
2019-03-09T03:55:37.565Z,3.40
2019-03-09T03:58:07.637Z,3.10
2019-03-09T04:00:37.696Z,3.23
2019-03-09T04:03:07.710Z,3.77
2019-03-09T04:05:37.710Z,3.20
2019-03-09T04:08:07.718Z,3.40
2019-03-09T04:10:37.705Z,3.40
2019-03-09T04:13:20.368Z,3.30
2019-03-09T04:15:50.332Z,3.43
2019-03-09T04:18:20.342Z,2.87
2019-03-09T04:20:50.255Z,3.23
2019-03-09T04:23:20.186Z,3.40
2019-03-09T04:25:50.124Z,2.90
2019-03-09T04:28:20.047Z,2.67
2019-03-09T04:30:49.901Z,3.40
2019-03-09T04:33:19.829Z,2.53
2019-03-09T04:35:49.672Z,2.97
2019-03-09T04:38:19.535Z,2.43
2019-03-09T04:40:49.558Z,3.00
2019-03-09T04:43:19.398Z,2.93
2019-03-09T04:45:49.255Z,2.73
2019-03-09T04:48:20.060Z,2.23
2019-03-09T04:50:49.920Z,2.63
2019-03-09T04:53:19.763Z,2.40
2019-03-09T04:55:49.706Z,2.53
2019-03-09T04:58:19.641Z,2.37
2019-03-09T05:00:49.475Z,2.10
2019-03-09T05:03:19.340Z,2.17
2019-03-09T05:05:49.254Z,2.27
2019-03-09T05:08:24.735Z,2.13
2019-03-09T05:10:57.777Z,2.10
2019-03-09T05:13:30.730Z,1.97
2019-03-09T05:16:19.906Z,2.07
2019-03-09T05:18:49.836Z,1.83
2019-03-09T05:21:19.676Z,1.70
2019-03-09T05:23:49.553Z,2.00
2019-03-09T05:26:19.396Z,1.77
2019-03-09T05:28:49.329Z,1.80
2019-03-09T05:31:20.237Z,1.53
2019-03-09T05:33:50.117Z,1.60
2019-03-09T05:36:20.032Z,1.80
2019-03-09T05:38:51.260Z,1.80
2019-03-09T05:41:21.312Z,1.60
2019-03-09T05:43:51.241Z,1.37
2019-03-09T05:46:21.170Z,1.80
2019-03-09T05:48:51.207Z,1.57
2019-03-09T05:51:21.139Z,2.00
2019-03-09T05:53:50.978Z,1.70
2019-03-09T05:56:20.983Z,1.60
2019-03-09T05:58:50.814Z,1.60
2019-03-09T06:01:20.677Z,1.63
2019-03-09T06:03:50.514Z,1.60
2019-03-09T06:06:20.446Z,1.73
2019-03-09T06:08:50.351Z,1.30
2019-03-09T06:11:20.201Z,1.80
2019-03-09T06:13:50.040Z,1.60
2019-03-09T06:16:19.972Z,1.70
2019-03-09T06:18:50.963Z,1.60
2019-03-09T06:21:20.812Z,1.83
2019-03-09T06:23:50.659Z,1.60
2019-03-09T06:26:20.583Z,1.37
2019-03-09T06:28:50.467Z,1.70
2019-03-09T06:31:20.325Z,1.17
2019-03-09T06:33:50.244Z,1.10
2019-03-09T06:36:34.904Z,1.33
2019-03-09T06:39:07.064Z,1.37
2019-03-09T06:41:48.942Z,1.80
2019-03-09T06:44:18.790Z,1.70
2019-03-09T06:46:50.071Z,1.20
2019-03-09T06:49:20.179Z,1.40
2019-03-09T06:51:50.104Z,1.60
2019-03-09T06:54:20.008Z,1.63
2019-03-09T06:56:49.955Z,1.53
2019-03-09T06:59:20.955Z,1.50
2019-03-09T07:01:50.825Z,1.53
2019-03-09T07:04:20.737Z,1.20
2019-03-09T07:06:50.654Z,1.10
2019-03-09T07:09:20.521Z,1.07
2019-03-09T07:11:50.424Z,0.97
2019-03-09T07:14:55.439Z,0.90
2019-03-09T07:17:25.377Z,1.23
2019-03-09T07:19:55.284Z,1.10
2019-03-09T07:22:25.279Z,1.10
2019-03-09T07:24:55.210Z,1.27
2019-03-09T07:27:25.046Z,0.97
2019-03-09T07:29:54.962Z,1.13
2019-03-09T07:32:24.805Z,1.10
2019-03-09T07:34:54.650Z,1.00
2019-03-09T07:37:24.569Z,0.90
2019-03-09T07:40:00.381Z,1.17
2019-03-09T07:42:30.282Z,1.10
2019-03-09T07:45:00.263Z,1.07
2019-03-09T07:47:30.159Z,0.97
2019-03-09T07:50:00.299Z,1.20
2019-03-09T07:52:32.931Z,0.93
2019-03-09T07:55:02.840Z,1.00
2019-03-09T07:57:32.782Z,1.13
2019-03-09T08:00:02.701Z,1.00
2019-03-09T08:02:32.807Z,1.10
2019-03-09T08:05:02.734Z,1.37
2019-03-09T08:07:32.581Z,1.10
2019-03-09T08:10:02.524Z,0.87
2019-03-09T08:12:32.436Z,0.97
2019-03-09T08:15:02.368Z,1.03
2019-03-09T08:17:32.555Z,1.20
2019-03-09T08:20:02.509Z,1.00
2019-03-09T08:22:32.587Z,0.70
2019-03-09T08:25:02.507Z,0.93
2019-03-09T08:27:32.350Z,1.20
2019-03-09T08:30:02.722Z,1.07
2019-03-09T08:32:33.778Z,0.80
2019-03-09T08:35:04.459Z,1.10
2019-03-09T08:37:34.300Z,1.10
2019-03-09T08:40:08.785Z,1.03
2019-03-09T08:42:38.707Z,1.00
2019-03-09T08:45:11.075Z,1.00
2019-03-09T08:47:51.228Z,0.97
2019-03-09T08:50:14.569Z,1.00
2019-03-09T08:52:44.489Z,1.20
2019-03-09T08:55:17.896Z,1.23
2019-03-09T08:57:47.230Z,1.00
2019-03-09T09:00:20.152Z,0.80
2019-03-09T09:02:50.086Z,0.80
2019-03-09T09:05:19.999Z,0.70
2019-03-09T09:07:49.848Z,1.00
2019-03-09T09:10:19.757Z,1.00
2019-03-09T09:12:49.768Z,0.90
2019-03-09T09:15:19.853Z,1.00
2019-03-09T09:17:49.793Z,0.80
2019-03-09T09:20:24.459Z,0.80
2019-03-09T09:22:54.457Z,1.07
2019-03-09T09:25:24.388Z,0.70
2019-03-09T09:27:54.699Z,0.93
2019-03-09T09:30:28.884Z,0.77
2019-03-09T09:32:58.879Z,0.70
2019-03-09T09:35:28.784Z,0.77
2019-03-09T09:37:58.712Z,0.70
2019-03-09T09:40:28.638Z,0.80
2019-03-09T09:42:58.563Z,0.67
2019-03-09T09:45:28.567Z,0.70
2019-03-09T09:47:58.485Z,0.57
2019-03-09T09:50:28.417Z,0.63
2019-03-09T09:52:58.260Z,0.70
2019-03-09T09:55:28.138Z,0.80
2019-03-09T09:57:58.053Z,0.70
2019-03-09T10:00:28.756Z,0.80
2019-03-09T10:02:58.631Z,0.70
2019-03-09T10:05:28.482Z,0.67
2019-03-09T10:07:58.348Z,0.70
2019-03-09T10:10:29.847Z,0.57
2019-03-09T10:13:00.024Z,0.80
2019-03-09T10:15:31.995Z,0.70
2019-03-09T10:18:01.901Z,0.60
2019-03-09T10:20:31.840Z,0.70
2019-03-09T10:23:04.790Z,0.90
2019-03-09T10:25:33.472Z,0.80
2019-03-09T10:28:04.631Z,0.90
2019-03-09T10:30:34.567Z,0.67
2019-03-09T10:33:04.416Z,0.70
2019-03-09T10:35:34.339Z,0.80
2019-03-09T10:38:04.359Z,0.80
2019-03-09T10:40:34.351Z,0.70
2019-03-09T10:43:04.196Z,0.80
2019-03-09T10:45:34.133Z,0.80
2019-03-09T10:48:05.189Z,0.60
2019-03-09T10:50:35.042Z,0.73
2019-03-09T10:53:04.904Z,0.60
2019-03-09T10:55:35.569Z,0.70
2019-03-09T10:58:05.511Z,0.90
2019-03-09T11:00:43.198Z,0.70
2019-03-09T11:03:13.151Z,0.60
2019-03-09T11:05:43.141Z,0.90
2019-03-09T11:08:13.081Z,0.70
2019-03-09T11:10:43.053Z,0.90
2019-03-09T11:13:12.976Z,0.70
2019-03-09T11:15:42.829Z,0.70
2019-03-09T11:18:12.807Z,0.70
2019-03-09T11:20:42.728Z,0.70
2019-03-09T11:23:12.652Z,1.20
2019-03-09T11:25:42.491Z,0.70
2019-03-09T11:28:13.736Z,0.70
2019-03-09T11:30:43.638Z,0.77
2019-03-09T11:33:13.561Z,0.90
2019-03-09T11:35:43.417Z,1.10
2019-03-09T11:38:13.260Z,0.90
2019-03-09T11:40:43.121Z,0.90
2019-03-09T11:43:13.054Z,0.90
2019-03-09T11:45:42.887Z,0.73
2019-03-09T11:48:12.748Z,0.80
2019-03-09T11:50:42.583Z,0.77
2019-03-09T11:53:12.475Z,0.80
2019-03-09T11:55:42.391Z,1.00
2019-03-09T11:58:12.274Z,0.90
2019-03-09T12:00:43.815Z,0.93
2019-03-09T12:03:13.720Z,0.80
2019-03-09T12:05:43.636Z,0.90
2019-03-09T12:08:13.503Z,0.90
2019-03-09T12:10:43.445Z,1.07
2019-03-09T12:13:13.351Z,0.70
2019-03-09T12:15:43.219Z,0.83
2019-03-09T12:18:13.157Z,0.70
2019-03-09T12:20:43.071Z,0.70
2019-03-09T12:23:15.637Z,0.70
2019-03-09T12:25:45.555Z,0.70
2019-03-09T12:28:15.415Z,0.70
2019-03-09T12:30:45.274Z,0.60
2019-03-09T12:33:15.201Z,0.60
2019-03-09T12:35:45.130Z,0.53
2019-03-09T12:38:15.065Z,0.70
2019-03-09T12:40:45.051Z,0.63
2019-03-09T12:43:14.898Z,0.80
2019-03-09T12:45:44.740Z,0.70
2019-03-09T12:48:14.611Z,0.60
2019-03-09T12:50:44.452Z,0.40
2019-03-09T12:53:14.438Z,0.50
2019-03-09T12:55:44.366Z,1.10
2019-03-09T12:58:14.368Z,0.60
2019-03-09T13:00:44.207Z,0.60
2019-03-09T13:03:14.345Z,0.60
2019-03-09T13:05:46.568Z,0.97
2019-03-09T13:08:15.847Z,0.50
2019-03-09T13:10:45.841Z,0.80
2019-03-09T13:13:15.771Z,0.50
2019-03-09T13:15:45.621Z,0.50
2019-03-09T13:18:15.479Z,0.70
2019-03-09T13:20:45.348Z,0.80
2019-03-09T13:23:15.259Z,0.43
2019-03-09T13:25:45.269Z,0.50
2019-03-09T13:28:15.123Z,0.53
2019-03-09T13:30:45.065Z,0.60
2019-03-09T13:33:14.996Z,0.70
2019-03-09T13:35:44.919Z,0.53
2019-03-09T13:38:14.759Z,0.50
2019-03-09T13:40:44.701Z,0.47
2019-03-09T13:43:14.640Z,0.50
2019-03-09T13:45:44.546Z,0.50
2019-03-09T13:48:14.417Z,0.60
2019-03-09T13:50:44.403Z,0.60
2019-03-09T13:53:14.365Z,0.50
2019-03-09T13:55:44.283Z,0.73
2019-03-09T13:58:14.147Z,0.80
2019-03-09T14:00:44.111Z,0.60
2019-03-09T14:03:14.026Z,0.90
2019-03-09T14:05:43.967Z,0.60
2019-03-09T14:08:13.895Z,0.60
2019-03-09T14:10:43.900Z,0.60
2019-03-09T14:13:13.846Z,0.90
2019-03-09T14:15:43.721Z,0.70
2019-03-09T14:18:13.668Z,0.80
2019-03-09T14:20:43.586Z,0.60
2019-03-09T14:23:13.517Z,1.00
2019-03-09T14:25:43.359Z,1.20
2019-03-09T14:28:13.309Z,0.90
2019-03-09T14:30:43.229Z,0.90
2019-03-09T14:33:13.103Z,0.80
2019-03-09T14:35:44.116Z,0.90
2019-03-09T14:38:13.978Z,1.00
2019-03-09T14:40:43.848Z,1.10
2019-03-09T14:43:13.711Z,1.00
2019-03-09T14:45:43.624Z,0.90
2019-03-09T14:48:13.531Z,1.07
2019-03-09T14:50:43.392Z,1.10
2019-03-09T14:53:13.241Z,1.10
2019-03-09T14:55:43.103Z,0.97
2019-03-09T14:58:12.951Z,1.20
2019-03-09T15:00:42.826Z,1.00
2019-03-09T15:03:12.812Z,1.00
2019-03-09T15:05:42.700Z,1.13
2019-03-09T15:08:12.562Z,1.10
2019-03-09T15:10:42.489Z,0.93
2019-03-09T15:13:12.357Z,1.10
2019-03-09T15:15:42.280Z,0.90
2019-03-09T15:18:12.226Z,0.97
2019-03-09T15:20:42.147Z,0.90
2019-03-09T15:23:12.087Z,1.10
2019-03-09T15:25:42.006Z,1.20
2019-03-09T15:28:11.940Z,0.70
2019-03-09T15:30:41.899Z,0.70
2019-03-09T15:33:11.744Z,0.70
2019-03-09T15:35:41.616Z,0.93
2019-03-09T15:38:11.534Z,1.00
2019-03-09T15:40:41.396Z,0.80
2019-03-09T15:43:11.324Z,0.70
2019-03-09T15:45:41.169Z,0.60
2019-03-09T15:48:11.307Z,0.80
2019-03-09T15:50:41.258Z,0.80
2019-03-09T15:53:11.173Z,0.70
2019-03-09T15:55:41.102Z,0.80
2019-03-09T15:58:10.951Z,0.70
2019-03-09T16:00:40.879Z,0.80
2019-03-09T16:03:10.715Z,0.67
2019-03-09T16:05:40.584Z,0.77
2019-03-09T16:08:10.542Z,0.60
2019-03-09T16:10:40.538Z,0.60
2019-03-09T16:13:10.493Z,0.73
2019-03-09T16:15:40.330Z,0.77
2019-03-09T16:18:10.281Z,0.60
2019-03-09T16:20:40.241Z,0.73
2019-03-09T16:23:10.174Z,0.77
2019-03-09T16:25:40.101Z,1.00
2019-03-09T16:28:10.041Z,0.70
2019-03-09T16:30:39.940Z,0.80
2019-03-09T16:33:10.931Z,0.70
2019-03-09T16:35:40.858Z,0.70
2019-03-09T16:38:10.719Z,0.70
2019-03-09T16:40:41.005Z,0.70
2019-03-09T16:43:11.001Z,0.60
2019-03-09T16:45:40.941Z,0.90
2019-03-09T16:48:10.848Z,0.77
2019-03-09T16:50:40.701Z,0.60
2019-03-09T16:53:10.648Z,0.90
2019-03-09T16:55:40.576Z,0.80
2019-03-09T16:58:10.545Z,0.63
2019-03-09T17:00:40.502Z,0.97
2019-03-09T17:03:10.410Z,0.77
2019-03-09T17:05:41.374Z,0.90
2019-03-09T17:08:11.305Z,1.00
2019-03-09T17:10:41.176Z,1.00
2019-03-09T17:13:11.117Z,1.00
2019-03-09T17:15:42.113Z,0.73
2019-03-09T17:18:12.023Z,0.90
2019-03-09T17:20:41.981Z,1.20
2019-03-09T17:23:11.957Z,0.90
2019-03-09T17:25:41.967Z,0.93
2019-03-09T17:28:11.976Z,1.00
2019-03-09T17:30:42.578Z,1.20
2019-03-09T17:33:14.744Z,1.27
2019-03-09T17:35:45.768Z,0.90
2019-03-09T17:38:17.137Z,1.10
2019-03-09T17:40:48.246Z,0.77
2019-03-09T17:43:19.780Z,0.83
2019-03-09T17:45:50.764Z,1.63
2019-03-09T17:48:22.136Z,1.00
2019-03-09T17:50:53.276Z,4.33
2019-03-09T17:53:25.067Z,1.70
2019-03-09T17:55:58.054Z,1.00
2019-03-09T17:58:29.610Z,1.03
2019-03-09T18:01:00.720Z,1.43
2019-03-09T18:03:31.466Z,1.17
2019-03-09T18:06:03.805Z,2.40
2019-03-09T18:08:35.866Z,1.13
2019-03-09T18:11:10.203Z,1.30
2019-03-09T18:13:40.215Z,1.20
2019-03-09T18:16:10.231Z,1.13
2019-03-09T18:18:40.156Z,1.20
2019-03-09T18:21:10.163Z,1.10
2019-03-09T18:23:40.958Z,1.20
2019-03-09T18:26:10.939Z,1.20
2019-03-09T18:28:40.841Z,1.10
2019-03-09T18:31:10.687Z,1.37
2019-03-09T18:33:40.550Z,1.53
2019-03-09T18:36:10.500Z,1.37
2019-03-09T18:38:40.414Z,1.27
2019-03-09T18:41:10.450Z,1.50
2019-03-09T18:43:40.387Z,1.50
2019-03-09T18:46:10.265Z,1.73
2019-03-09T18:48:49.290Z,1.80
2019-03-09T18:51:21.276Z,1.87
2019-03-09T18:53:51.190Z,1.70
2019-03-09T18:56:22.054Z,1.97
2019-03-09T18:58:51.966Z,1.40
2019-03-09T19:01:21.833Z,1.30
2019-03-09T19:03:51.681Z,1.70
2019-03-09T19:06:21.625Z,1.50
2019-03-09T19:08:51.554Z,1.70
2019-03-09T19:11:21.561Z,1.90
2019-03-09T19:13:51.521Z,2.00
2019-03-09T19:16:21.411Z,1.90
2019-03-09T19:18:51.538Z,2.30
2019-03-09T19:21:21.484Z,2.33
2019-03-09T19:23:51.391Z,1.53
2019-03-09T19:26:22.331Z,2.07
2019-03-09T19:28:52.289Z,1.77
2019-03-09T19:31:22.246Z,1.80
2019-03-09T19:33:52.172Z,2.50
2019-03-09T19:36:22.036Z,1.80
2019-03-09T19:38:51.897Z,1.90
2019-03-09T19:41:22.535Z,1.90
2019-03-09T19:43:52.563Z,1.90
2019-03-09T19:46:22.437Z,1.80
2019-03-09T19:48:52.289Z,1.53
2019-03-09T19:51:23.452Z,2.10
2019-03-09T19:53:55.361Z,1.80
2019-03-09T19:56:26.807Z,2.07
2019-03-09T19:58:57.913Z,2.07
2019-03-09T20:01:28.451Z,2.30
2019-03-09T20:03:59.377Z,2.03
2019-03-09T20:06:30.859Z,1.80
2019-03-09T20:09:02.042Z,2.03
2019-03-09T20:11:33.703Z,2.10
2019-03-09T20:14:05.420Z,2.40
2019-03-09T20:16:36.218Z,2.10
2019-03-09T20:19:06.550Z,2.00
2019-03-09T20:21:36.680Z,2.10
2019-03-09T20:24:06.670Z,1.87
2019-03-09T20:26:36.616Z,2.10
2019-03-09T20:29:06.559Z,2.37
2019-03-09T20:31:36.399Z,2.60
2019-03-09T20:34:08.217Z,2.33
2019-03-09T20:36:50.750Z,2.20
2019-03-09T20:39:29.468Z,2.60
2019-03-09T20:41:59.503Z,3.20
2019-03-09T20:44:29.374Z,3.10
2019-03-09T20:46:59.395Z,2.90
2019-03-09T20:49:29.313Z,2.40
2019-03-09T20:51:59.171Z,2.80
2019-03-09T20:54:29.169Z,3.30
2019-03-09T20:56:59.196Z,2.33
2019-03-09T20:59:30.172Z,2.57
2019-03-09T21:02:00.043Z,2.23
2019-03-09T21:04:29.981Z,2.40
2019-03-09T21:06:59.918Z,1.90
2019-03-09T21:09:29.875Z,2.77
2019-03-09T21:11:59.799Z,2.50
2019-03-09T21:14:29.726Z,2.67
2019-03-09T21:16:59.935Z,2.83
2019-03-09T21:19:30.046Z,2.93
2019-03-09T21:22:00.628Z,2.77
2019-03-09T21:24:31.157Z,3.13
2019-03-09T21:27:01.684Z,2.50
2019-03-09T21:29:32.704Z,2.47
2019-03-09T21:32:02.726Z,3.00
2019-03-09T21:34:32.644Z,3.13
2019-03-09T21:37:02.492Z,2.97
2019-03-09T21:39:32.517Z,3.13
2019-03-09T21:42:02.401Z,3.33
2019-03-09T21:44:32.330Z,2.97
2019-03-09T21:47:02.240Z,3.00
2019-03-09T21:49:33.270Z,2.57
2019-03-09T21:52:04.327Z,3.00
2019-03-09T21:54:34.157Z,2.70
2019-03-09T21:57:04.104Z,3.23
2019-03-09T21:59:34.076Z,3.13
2019-03-09T22:02:03.968Z,3.20
2019-03-09T22:04:33.896Z,3.57
2019-03-09T22:07:03.795Z,3.20
2019-03-09T22:09:33.722Z,3.47
2019-03-09T22:12:03.569Z,3.90
2019-03-09T22:14:33.432Z,3.93
2019-03-09T22:17:03.316Z,3.40
2019-03-09T22:19:33.255Z,3.27
2019-03-09T22:22:03.109Z,3.23
2019-03-09T22:24:32.950Z,3.50
2019-03-09T22:27:02.880Z,3.30
2019-03-09T22:29:32.787Z,3.37
2019-03-09T22:32:03.045Z,3.40
2019-03-09T22:34:32.996Z,3.50
2019-03-09T22:37:02.912Z,3.20
2019-03-09T22:39:32.797Z,3.50
2019-03-09T22:42:02.688Z,3.53
2019-03-09T22:44:32.628Z,3.30
2019-03-09T22:47:11.187Z,3.53
2019-03-09T22:49:37.499Z,3.67
2019-03-09T22:52:05.643Z,3.13
2019-03-09T22:54:35.587Z,3.20
2019-03-09T22:57:06.519Z,3.80
2019-03-09T22:59:36.668Z,3.47
2019-03-09T23:02:07.383Z,3.43
2019-03-09T23:04:37.251Z,3.17
2019-03-09T23:07:07.204Z,3.17
2019-03-09T23:09:37.104Z,3.70
2019-03-09T23:12:07.030Z,3.10
2019-03-09T23:14:36.872Z,2.80
2019-03-09T23:17:07.721Z,2.73
2019-03-09T23:19:37.800Z,2.70
2019-03-09T23:22:07.694Z,3.60
2019-03-09T23:24:37.635Z,3.43
2019-03-09T23:27:07.543Z,3.20
2019-03-09T23:29:38.516Z,3.10
2019-03-09T23:32:08.364Z,3.00
2019-03-09T23:34:38.315Z,2.80
2019-03-09T23:37:08.228Z,3.10
2019-03-09T23:39:38.092Z,3.27
2019-03-09T23:42:08.085Z,3.13
2019-03-09T23:44:38.067Z,2.97
2019-03-09T23:47:08.523Z,3.67
2019-03-09T23:49:38.563Z,3.20
2019-03-09T23:52:08.558Z,3.07
2019-03-09T23:54:38.416Z,2.70
2019-03-09T23:57:08.307Z,3.03
2019-03-09T23:59:38.176Z,2.37
